Предлагаем Вашему вниманию английскую версию страницы: AUTOTAF.ME UWUU - aviation weather forecast Ufa

AUTOTAF UWUU - авиапрогноз Уфа

Сегодня рассвет 03:43 UTC, восход солнца 04:24 UTC,
местный полдень 08:27 UTC, заход солнца 12:29 UTC,
наступление темноты 13:11 UTC.

Краткий прогноз UWUU на 9 часов

AUTOTAF.ME UWUU 190800Z 1909/1918 VRB02MPS 1000 SN OVC008    
  BECMG 1910/1912 1500  
  FM191500 VRB02MPS 1000 SN BR OVC003 
  FM191800 VRB02MPS 9999 -SN BKN008

Детальный прогноз UWUU на 24 часа

AUTOTAF.ME UWUU 190800Z 1909/2009 VRB02MPS 1000 SN OVC008 TXM11/1909Z TNM15/2006Z  
  BECMG 1910/1912 1500  
  FM191500 VRB02MPS 1000 SN BR OVC003 
  FM191800 VRB02MPS 9999 -SN BKN008 
  FM192100 20003MPS 5000 BR BKN006 
  BECMG 1922/2000 -SN BR  
  FM200300 25003MPS 9999 BKN008 
  BECMG 2004/2006 -SN   
  FM200900 22004MPS 9999 OVC012

Подробный табличный прогноз

Время (UTC) miniAUTOTAF на 3 ч WX FZLVL
M AGL
ICE TURB Т
(°С)
Тd
(°С)
f(%) QNH
(гПа)
WIND/T
06 VRB02MPS 0800 +SN OVC007 +SN SFC MOD FL120/FL130 -15 -17 83 1014 ...
09 VRB02MPS 1000 SN OVC008 SN SFC FBL FL20/FL170 -11 -13 82 1012 ...
12 VRB02MPS 1500 SN OVC006 SN SFC FBL FL20/FL150 -11 -13 87 1012 ...
15 VRB02MPS 1000 SN BR OVC003 SN BR SFC FBL FL20/FL120 -12 -14 86 1012 ...
18 VRB02MPS 9999 -SN BKN008 -SN SFC FBL FL20/FL110 MOD FL150/FL160 -12 -14 82 1012 ...
21 20003MPS 5000 BR BKN006 BR SFC FBL FL20/FL90 -12 -14 85 1012 ...
20.01.2021
00 VRB02MPS 5000 -SN BR BKN006 -SN BR SFC FBL FL20/FL90 -13 -15 84 1013 ...
03 25003MPS 9999 BKN008 SFC MOD FL90/FL100 MOD FL150/FL160 -14 -17 82 1013 ...
06 24005MPS 9999 -SN BKN010 -SN SFC MOD FL20/FL90 MOD FL150/FL170 -15 -18 76 1015 ...
09 22004MPS 9999 OVC012 SFC MOD FL10/FL90 MOD FL170/FL180 -15 -19 72 1016 ...
12 21004MPS 5000 BR BKN011 BR SFC MOD FL10/FL20 MOD FL170/FL180 -15 -19 74 1017 ...
15 21005G10MPS 7000 BR BKN006 BR SFC MOD FL20/FL110 MOD SFC/FL20 -16 -20 74 1018 ...
18 22005MPS 9999 OVC006 SFC MOD FL10/FL120 MOD SFC/FL20 -17 -20 75 1018 ...
21 21004MPS 9999 -SN OVC006 -SN SFC MOD FL10/FL120 MOD SFC/FL20 -17 -20 76 1019 ...
21.01.2021
00 21004MPS 9999 -SN OVC006 -SN SFC MOD FL10/FL20 MOD SFC/FL20 -17 -20 75 1019 ...
03 20004MPS 9999 BKN006 SFC MOD FL10/FL110 -17 -20 76 1020 ...


Широта 54.55665°, долгота 55.875°, высота 137 м абс.
Средняя высота рельефа местности 132 м абс.
Прогнозы обновляются четыре раза в сутки: в 02, 08, 14, 20 ч всемирного времени.


Выбрать прогноз по другой модели Уфа
Онлайн-сводка гроз по Уфа (для РФ и ближнего зарубежья)
Карта фактических гроз в окрестностях Уфа
Динамические прогностические карты (ventusky.com)
Прогностическая карта высоты нижней границы облаков по Уфа (windy.com)
Выбрать другой город

Прогноз предназначен для личного научно-познавательного использования частными лицами
и не предназначен для принятия важных решений и выполнения реальных полётов воздушных судов

При копировании или ином использовании любых материалов данного сайта ссылка на © meteocenter.asia обязательна.

0.62/1